Time;durP1;ratioP1;P1;durP2;ratioP2;P2;SDS_P1;SDS_P2;PMS_P1;PMS_P2;Temp;Humidity;BMP_temperature;BMP_pressure;BME280_temperature;BME280_humidity;BME280_pressure;Samples;Min_cycle;Max_cycle;Signal;HPM_P1;HPM_P2
2023/12/23 00:00:40;;;;;;;4.03;0.80;;;;;;;;;;5017546;28;20045;-77
2023/12/23 00:03:05;;;;;;;6.82;0.60;;;;;;;;;;5023951;28;20087;-77
2023/12/23 00:05:30;;;;;;;2.47;0.40;;;;;;;;;;5017692;28;20030;-76
2023/12/23 00:07:55;;;;;;;1.85;0.50;;;;;;;;;;5016835;28;20038;-77
2023/12/23 00:10:20;;;;;;;3.40;0.82;;;;;;;;;;5022096;28;20037;-77
2023/12/23 00:12:45;;;;;;;3.33;0.60;;;;;;;;;;5019238;28;20029;-77
2023/12/23 00:15:11;;;;;;;5.93;1.17;;;;;;;;;;5024045;28;20036;-76
2023/12/23 00:17:36;;;;;;;6.57;0.43;;;;;;;;;;5027430;28;20029;-77
2023/12/23 00:20:01;;;;;;;2.70;0.40;;;;;;;;;;5022145;28;20032;-77
2023/12/23 00:22:26;;;;;;;7.75;0.80;;;;;;;;;;5024637;28;20441;-77
2023/12/23 00:24:51;;;;;;;2.10;0.52;;;;;;;;;;5023006;28;20030;-77
2023/12/23 00:27:16;;;;;;;3.97;0.70;;;;;;;;;;5024554;28;20518;-77
2023/12/23 00:29:42;;;;;;;3.13;0.60;;;;;;;;;;5021971;28;20113;-77
2023/12/23 00:32:07;;;;;;;5.82;0.63;;;;;;;;;;5021308;28;20387;-77
2023/12/23 00:34:32;;;;;;;1.75;0.50;;;;;;;;;;5025453;28;20037;-76
2023/12/23 00:36:58;;;;;;;2.35;0.30;;;;;;;;;;5020612;28;20025;-77
2023/12/23 00:39:24;;;;;;;2.28;0.50;;;;;;;;;;5007273;28;20081;-77
2023/12/23 00:41:49;;;;;;;1.17;0.30;;;;;;;;;;5021491;28;20048;-77
2023/12/23 00:44:14;;;;;;;1.80;0.20;;;;;;;;;;5024106;28;20398;-77
2023/12/23 00:46:39;;;;;;;2.10;0.50;;;;;;;;;;5024670;28;20057;-77
2023/12/23 00:49:05;;;;;;;4.18;0.28;;;;;;;;;;5022421;28;20062;-77
2023/12/23 00:51:30;;;;;;;3.33;0.47;;;;;;;;;;5023436;28;20116;-77
2023/12/23 00:53:56;;;;;;;4.00;0.40;;;;;;;;;;5021524;28;20129;-77
2023/12/23 00:56:22;;;;;;;2.75;0.50;;;;;;;;;;5026953;28;20533;-77
2023/12/23 00:58:47;;;;;;;1.67;0.57;;;;;;;;;;5023067;28;20609;-77
2023/12/23 01:01:13;;;;;;;3.50;0.63;;;;;;;;;;5040697;22;20046;-80
2023/12/23 01:03:38;;;;;;;6.47;0.40;;;;;;;;;;5010416;28;20063;-80
2023/12/23 01:06:03;;;;;;;2.55;0.47;;;;;;;;;;5013926;28;20088;-80
2023/12/23 01:08:28;;;;;;;5.72;0.60;;;;;;;;;;5010410;28;20026;-79
2023/12/23 01:10:54;;;;;;;7.13;0.38;;;;;;;;;;5026463;28;20034;-79
2023/12/23 01:13:19;;;;;;;2.05;0.40;;;;;;;;;;5003961;28;20022;-79
2023/12/23 01:15:45;;;;;;;3.60;0.50;;;;;;;;;;5012172;28;20101;-79
2023/12/23 01:18:12;;;;;;;4.90;0.55;;;;;;;;;;5016512;28;20030;-79
2023/12/23 01:20:42;;;;;;;5.93;0.90;;;;;;;;;;5009214;28;20037;-78
2023/12/23 01:23:07;;;;;;;5.97;0.70;;;;;;;;;;5012548;28;20036;-78
2023/12/23 01:25:33;;;;;;;6.53;0.63;;;;;;;;;;5004744;28;20018;-79
2023/12/23 01:28:04;;;;;;;5.15;0.40;;;;;;;;;;5006203;28;20103;-79
2023/12/23 01:30:29;;;;;;;2.72;0.45;;;;;;;;;;5010070;28;20458;-78
2023/12/23 01:32:54;;;;;;;2.13;0.38;;;;;;;;;;5010694;28;20070;-78
2023/12/23 01:35:19;;;;;;;3.00;0.60;;;;;;;;;;5003094;28;20057;-78
2023/12/23 01:37:45;;;;;;;3.25;0.55;;;;;;;;;;5005911;28;20038;-78
2023/12/23 01:40:10;;;;;;;3.03;0.60;;;;;;;;;;5006783;28;20037;-78
2023/12/23 01:42:36;;;;;;;7.03;0.90;;;;;;;;;;5004470;28;20038;-78
2023/12/23 01:45:01;;;;;;;5.35;0.85;;;;;;;;;;5012539;28;20112;-78
2023/12/23 01:47:26;;;;;;;6.47;1.08;;;;;;;;;;5009721;28;20026;-78
2023/12/23 01:49:51;;;;;;;6.82;0.85;;;;;;;;;;5012725;28;20042;-78
2023/12/23 01:52:17;;;;;;;6.57;0.82;;;;;;;;;;5005698;28;20029;-78
2023/12/23 01:54:42;;;;;;;4.78;0.68;;;;;;;;;;5002545;28;20813;-78
2023/12/23 01:57:07;;;;;;;8.73;1.63;;;;;;;;;;5007944;28;20026;-79
2023/12/23 01:59:32;;;;;;;9.35;1.38;;;;;;;;;;5010340;28;20038;-78
2023/12/23 02:01:59;;;;;;;4.38;1.05;;;;;;;;;;5010203;28;20025;-78
2023/12/23 02:04:24;;;;;;;5.75;0.90;;;;;;;;;;4989861;28;20032;-78
2023/12/23 02:06:49;;;;;;;7.65;1.30;;;;;;;;;;5005036;28;20395;-78
2023/12/23 02:09:14;;;;;;;6.25;0.85;;;;;;;;;;5006414;28;20076;-78
2023/12/23 02:11:51;;;;;;;8.13;1.00;;;;;;;;;;4991805;28;20040;-78
2023/12/23 02:14:35;;;;;;;4.10;0.70;;;;;;;;;;5011928;28;20452;-78
2023/12/23 02:17:00;;;;;;;5.75;0.60;;;;;;;;;;5011160;28;20029;-78
2023/12/23 02:19:26;;;;;;;10.70;1.02;;;;;;;;;;5007130;28;20030;-79
2023/12/23 02:21:51;;;;;;;5.03;0.93;;;;;;;;;;5006865;28;20030;-78
2023/12/23 02:24:16;;;;;;;5.80;0.90;;;;;;;;;;5007383;28;20036;-78
2023/12/23 02:26:48;;;;;;;9.98;1.13;;;;;;;;;;5010893;28;20155;-79
2023/12/23 02:29:16;;;;;;;7.03;1.65;;;;;;;;;;5011517;28;20110;-80
2023/12/23 02:31:42;;;;;;;6.03;0.82;;;;;;;;;;5007874;28;20026;-79
2023/12/23 02:34:08;;;;;;;8.32;1.05;;;;;;;;;;5011499;28;20095;-79
2023/12/23 02:36:33;;;;;;;7.43;1.52;;;;;;;;;;5002325;28;20054;-79
2023/12/23 02:38:58;;;;;;;3.95;0.70;;;;;;;;;;5009435;28;20040;-79
2023/12/23 02:41:23;;;;;;;7.07;1.73;;;;;;;;;;5010815;28;20030;-79
2023/12/23 02:43:49;;;;;;;6.72;1.05;;;;;;;;;;5007310;28;20102;-79
2023/12/23 02:46:14;;;;;;;9.30;1.15;;;;;;;;;;5011799;28;20067;-79
2023/12/23 02:48:39;;;;;;;9.45;1.10;;;;;;;;;;5007201;28;20404;-80
2023/12/23 02:51:04;;;;;;;9.63;1.08;;;;;;;;;;5002722;28;20025;-79
2023/12/23 02:53:30;;;;;;;5.45;1.23;;;;;;;;;;5011671;28;20032;-79
2023/12/23 02:55:55;;;;;;;5.10;0.98;;;;;;;;;;5010129;28;20124;-79
2023/12/23 02:58:20;;;;;;;11.07;1.30;;;;;;;;;;5006979;28;20037;-79
2023/12/23 03:00:45;;;;;;;6.03;1.30;;;;;;;;;;5007121;28;20027;-80
2023/12/23 03:03:10;;;;;;;6.72;1.27;;;;;;;;;;5005427;28;20084;-80
2023/12/23 03:05:36;;;;;;;7.65;1.15;;;;;;;;;;5004936;28;20034;-80
2023/12/23 03:08:01;;;;;;;9.55;1.13;;;;;;;;;;5005579;28;20025;-80
2023/12/23 03:10:26;;;;;;;9.63;1.35;;;;;;;;;;5009329;28;20045;-80
2023/12/23 03:12:51;;;;;;;9.73;1.02;;;;;;;;;;5005397;28;20027;-80
2023/12/23 03:15:17;;;;;;;7.57;1.08;;;;;;;;;;5005286;28;20498;-80
2023/12/23 03:17:42;;;;;;;4.85;0.85;;;;;;;;;;5003259;28;20037;-80
2023/12/23 03:20:08;;;;;;;9.10;1.10;;;;;;;;;;5008071;28;20545;-80
2023/12/23 03:22:33;;;;;;;8.00;1.35;;;;;;;;;;5008208;28;20033;-79
2023/12/23 03:24:59;;;;;;;8.70;1.08;;;;;;;;;;5008777;28;20099;-80
2023/12/23 03:27:24;;;;;;;7.55;1.40;;;;;;;;;;4988609;28;20507;-80
2023/12/23 03:29:49;;;;;;;7.07;1.00;;;;;;;;;;5004495;28;20045;-79
2023/12/23 03:32:15;;;;;;;7.32;1.05;;;;;;;;;;5005116;28;20486;-80
2023/12/23 03:34:41;;;;;;;7.13;1.35;;;;;;;;;;5007092;28;20029;-79
2023/12/23 03:37:06;;;;;;;7.97;1.73;;;;;;;;;;5010244;28;20029;-80
2023/12/23 03:39:31;;;;;;;13.57;1.90;;;;;;;;;;5007425;28;20033;-80
2023/12/23 03:41:56;;;;;;;11.23;1.50;;;;;;;;;;5005665;28;20038;-80
2023/12/23 03:44:21;;;;;;;6.40;1.17;;;;;;;;;;5006881;28;20375;-80
2023/12/23 03:46:47;;;;;;;8.13;1.25;;;;;;;;;;5000422;28;20036;-80
2023/12/23 03:49:12;;;;;;;7.45;0.90;;;;;;;;;;5011986;28;20026;-80
2023/12/23 03:51:37;;;;;;;5.38;0.88;;;;;;;;;;5008220;28;20036;-80
2023/12/23 03:54:02;;;;;;;6.47;1.73;;;;;;;;;;5009746;28;20558;-80
2023/12/23 03:56:28;;;;;;;7.35;1.17;;;;;;;;;;5003958;28;20038;-80
2023/12/23 03:58:53;;;;;;;5.90;1.25;;;;;;;;;;5002057;28;20038;-80
2023/12/23 04:01:19;;;;;;;10.35;1.60;;;;;;;;;;5002022;28;20032;-81
2023/12/23 04:03:45;;;;;;;7.50;1.55;;;;;;;;;;5005513;28;20026;-80
2023/12/23 04:06:11;;;;;;;8.23;1.20;;;;;;;;;;5014805;28;20092;-81
2023/12/23 04:08:37;;;;;;;8.02;1.67;;;;;;;;;;5005258;28;20057;-80
2023/12/23 04:11:02;;;;;;;13.18;2.35;;;;;;;;;;5004168;28;20058;-81
2023/12/23 04:13:29;;;;;;;11.45;1.52;;;;;;;;;;5001513;28;20030;-80
2023/12/23 04:15:54;;;;;;;13.48;1.77;;;;;;;;;;5009071;28;20399;-80
2023/12/23 04:18:20;;;;;;;10.63;2.03;;;;;;;;;;5009499;28;20037;-81
2023/12/23 04:20:45;;;;;;;15.70;2.17;;;;;;;;;;5004670;28;20026;-80
2023/12/23 04:23:10;;;;;;;10.13;1.33;;;;;;;;;;5009203;28;20450;-80
2023/12/23 04:25:35;;;;;;;10.48;1.10;;;;;;;;;;4985587;28;20038;-81
2023/12/23 04:28:01;;;;;;;5.47;0.93;;;;;;;;;;5005394;28;20034;-80
2023/12/23 04:30:26;;;;;;;4.03;0.80;;;;;;;;;;5005214;28;20097;-81
2023/12/23 04:32:51;;;;;;;9.90;1.65;;;;;;;;;;4989638;28;20026;-80
2023/12/23 04:35:17;;;;;;;9.23;1.17;;;;;;;;;;5009397;28;20482;-80
2023/12/23 04:37:44;;;;;;;7.70;1.17;;;;;;;;;;5006357;28;20034;-80
2023/12/23 04:40:10;;;;;;;12.10;1.35;;;;;;;;;;5009516;28;20030;-80
2023/12/23 04:42:36;;;;;;;9.23;0.95;;;;;;;;;;4987483;28;20026;-81
2023/12/23 04:45:01;;;;;;;8.82;1.17;;;;;;;;;;5026993;28;20044;-80
2023/12/23 04:47:26;;;;;;;10.35;2.10;;;;;;;;;;4991299;28;20120;-80
2023/12/23 04:49:51;;;;;;;5.18;0.95;;;;;;;;;;5009065;28;20483;-81
2023/12/23 04:52:17;;;;;;;7.75;1.35;;;;;;;;;;5002405;28;20480;-81
2023/12/23 04:54:42;;;;;;;7.95;2.28;;;;;;;;;;5006204;28;20052;-81
2023/12/23 04:57:07;;;;;;;8.02;2.10;;;;;;;;;;5008633;28;20032;-81
2023/12/23 04:59:32;;;;;;;7.93;1.63;;;;;;;;;;4995041;28;20044;-82
2023/12/23 05:01:57;;;;;;;11.18;1.77;;;;;;;;;;5013318;28;20045;-81
2023/12/23 05:04:23;;;;;;;12.15;2.40;;;;;;;;;;5012566;28;20133;-81
2023/12/23 05:06:48;;;;;;;8.00;1.65;;;;;;;;;;5009023;28;20032;-80
2023/12/23 05:09:14;;;;;;;8.68;1.30;;;;;;;;;;5008576;28;20380;-80
2023/12/23 05:11:39;;;;;;;10.32;1.88;;;;;;;;;;5010880;28;20451;-80
2023/12/23 05:14:05;;;;;;;10.02;1.25;;;;;;;;;;5011954;28;20178;-80
2023/12/23 05:16:30;;;;;;;12.55;1.40;;;;;;;;;;5008848;28;20026;-81
2023/12/23 05:18:55;;;;;;;10.23;1.23;;;;;;;;;;5011292;28;20407;-81
2023/12/23 05:21:21;;;;;;;8.45;1.10;;;;;;;;;;4989594;28;20100;-81
2023/12/23 05:23:46;;;;;;;10.15;1.05;;;;;;;;;;4985520;28;20038;-80
2023/12/23 05:26:16;;;;;;;7.88;1.27;;;;;;;;;;5011061;28;20049;-81
2023/12/23 05:28:41;;;;;;;7.13;1.40;;;;;;;;;;5009027;28;20548;-80
2023/12/23 05:31:06;;;;;;;9.98;1.23;;;;;;;;;;5009856;28;20030;-80
2023/12/23 05:33:32;;;;;;;9.95;1.85;;;;;;;;;;5005460;28;20025;-80
2023/12/23 05:35:57;;;;;;;7.00;1.00;;;;;;;;;;5005932;28;20479;-81
2023/12/23 05:38:22;;;;;;;8.25;1.25;;;;;;;;;;5007342;28;20040;-81
2023/12/23 05:40:47;;;;;;;6.30;1.25;;;;;;;;;;5011313;28;20037;-81
2023/12/23 05:43:13;;;;;;;9.75;2.17;;;;;;;;;;5010726;28;20022;-81
2023/12/23 05:45:38;;;;;;;8.75;1.33;;;;;;;;;;5007655;28;20061;-81
2023/12/23 05:48:04;;;;;;;11.00;1.75;;;;;;;;;;5010613;28;20030;-81
2023/12/23 05:50:29;;;;;;;11.50;1.35;;;;;;;;;;5002851;28;20022;-81
2023/12/23 05:52:54;;;;;;;10.57;1.45;;;;;;;;;;5007857;28;20037;-80
2023/12/23 05:55:20;;;;;;;9.05;1.75;;;;;;;;;;5011673;28;20487;-81
2023/12/23 05:57:45;;;;;;;8.55;1.45;;;;;;;;;;5008104;28;20062;-80
2023/12/23 06:00:10;;;;;;;7.53;1.95;;;;;;;;;;5008719;28;20064;-80
2023/12/23 06:02:38;;;;;;;8.13;1.42;;;;;;;;;;5002849;28;20046;-81
2023/12/23 06:05:04;;;;;;;6.22;1.48;;;;;;;;;;5008697;28;20022;-81
2023/12/23 06:07:29;;;;;;;10.00;1.70;;;;;;;;;;5008108;28;20471;-80
2023/12/23 06:09:54;;;;;;;7.32;1.27;;;;;;;;;;5008671;28;20453;-81
2023/12/23 06:12:19;;;;;;;9.35;1.75;;;;;;;;;;5010773;28;20566;-81
2023/12/23 06:14:44;;;;;;;9.50;1.42;;;;;;;;;;5008466;28;20041;-80
2023/12/23 06:17:10;;;;;;;14.05;1.67;;;;;;;;;;5006317;28;20468;-81
2023/12/23 06:19:35;;;;;;;15.60;1.50;;;;;;;;;;5005439;28;20053;-81
2023/12/23 06:22:00;;;;;;;9.52;2.03;;;;;;;;;;5011003;28;20018;-81
2023/12/23 06:24:25;;;;;;;10.02;2.15;;;;;;;;;;5009071;28;20029;-81
2023/12/23 06:26:50;;;;;;;7.40;1.23;;;;;;;;;;5010328;28;20022;-81
2023/12/23 06:29:15;;;;;;;9.43;1.50;;;;;;;;;;5007424;28;20068;-81
2023/12/23 06:31:41;;;;;;;7.57;1.00;;;;;;;;;;5002748;28;20041;-81
2023/12/23 06:34:06;;;;;;;9.73;1.02;;;;;;;;;;5011026;28;20083;-81
2023/12/23 06:36:31;;;;;;;5.90;1.10;;;;;;;;;;5011131;28;20080;-81
2023/12/23 06:38:56;;;;;;;12.80;1.38;;;;;;;;;;5006550;28;20038;-81
2023/12/23 06:41:21;;;;;;;7.43;1.10;;;;;;;;;;5010032;28;20110;-81
2023/12/23 06:43:47;;;;;;;15.45;1.13;;;;;;;;;;5002733;28;20038;-81
2023/12/23 06:46:12;;;;;;;11.07;2.10;;;;;;;;;;5012184;28;20109;-81
2023/12/23 06:48:37;;;;;;;8.75;2.05;;;;;;;;;;5006040;28;20040;-81
2023/12/23 06:51:06;;;;;;;8.00;1.17;;;;;;;;;;5009918;28;20101;-80
2023/12/23 06:53:31;;;;;;;8.80;0.90;;;;;;;;;;5008373;28;20041;-80
2023/12/23 06:55:56;;;;;;;5.57;1.10;;;;;;;;;;5006631;28;20114;-80
2023/12/23 06:58:22;;;;;;;8.73;1.35;;;;;;;;;;5005039;28;20040;-80
2023/12/23 07:00:47;;;;;;;6.63;0.98;;;;;;;;;;5002104;28;20038;-80
2023/12/23 07:03:12;;;;;;;13.13;1.60;;;;;;;;;;5010751;28;20080;-80
2023/12/23 07:05:37;;;;;;;6.25;0.90;;;;;;;;;;5009485;28;20034;-80
2023/12/23 07:08:03;;;;;;;6.63;1.60;;;;;;;;;;5007840;28;20029;-80
2023/12/23 07:10:28;;;;;;;11.77;1.70;;;;;;;;;;5004788;28;20387;-80
2023/12/23 07:12:53;;;;;;;7.22;1.65;;;;;;;;;;5003603;28;20030;-80
2023/12/23 07:15:18;;;;;;;9.82;1.02;;;;;;;;;;5003339;28;20026;-79
2023/12/23 07:17:44;;;;;;;8.57;1.80;;;;;;;;;;5007540;28;20036;-80
2023/12/23 07:20:09;;;;;;;8.95;1.17;;;;;;;;;;5009155;28;20029;-80
2023/12/23 07:22:34;;;;;;;7.25;0.77;;;;;;;;;;5005322;28;20516;-79
2023/12/23 07:24:59;;;;;;;7.78;0.90;;;;;;;;;;5005389;28;20502;-79
2023/12/23 07:27:24;;;;;;;10.85;1.48;;;;;;;;;;5003271;28;20081;-78
2023/12/23 07:29:50;;;;;;;11.82;1.33;;;;;;;;;;5009208;28;20117;-79
2023/12/23 07:32:15;;;;;;;10.02;1.75;;;;;;;;;;5010229;28;20034;-79
2023/12/23 07:34:40;;;;;;;10.32;1.20;;;;;;;;;;5007530;28;20033;-79
2023/12/23 07:37:05;;;;;;;9.50;1.20;;;;;;;;;;5005494;28;20041;-79
2023/12/23 07:39:30;;;;;;;7.50;1.70;;;;;;;;;;5004232;28;20434;-78
2023/12/23 07:41:57;;;;;;;7.95;1.00;;;;;;;;;;5003363;28;20103;-78
2023/12/23 07:44:23;;;;;;;5.97;1.20;;;;;;;;;;5005891;28;20060;-78
2023/12/23 07:46:49;;;;;;;7.25;1.10;;;;;;;;;;5008378;28;20030;-78
2023/12/23 07:49:14;;;;;;;7.80;1.10;;;;;;;;;;5010131;28;20172;-78
2023/12/23 07:51:39;;;;;;;6.55;1.55;;;;;;;;;;5004733;28;20092;-78
2023/12/23 07:54:04;;;;;;;4.75;0.85;;;;;;;;;;5007831;28;20466;-78
2023/12/23 07:56:29;;;;;;;6.70;0.90;;;;;;;;;;5002386;28;20045;-78
2023/12/23 07:58:57;;;;;;;4.95;0.75;;;;;;;;;;5008286;28;20030;-78
2023/12/23 08:01:22;;;;;;;4.50;0.80;;;;;;;;;;5009112;28;20022;-78
2023/12/23 08:03:47;;;;;;;4.65;0.80;;;;;;;;;;5009384;28;20030;-78
2023/12/23 08:06:15;;;;;;;10.30;1.35;;;;;;;;;;5006283;28;20033;-78
2023/12/23 08:08:40;;;;;;;6.32;1.52;;;;;;;;;;5001425;28;20053;-78
2023/12/23 08:11:05;;;;;;;6.47;1.20;;;;;;;;;;5004175;28;20127;-78
2023/12/23 08:13:30;;;;;;;6.25;1.00;;;;;;;;;;5009954;28;20041;-77
2023/12/23 08:15:55;;;;;;;5.78;1.17;;;;;;;;;;5007565;28;20042;-78
2023/12/23 08:18:20;;;;;;;7.80;1.10;;;;;;;;;;5008796;28;20033;-77
2023/12/23 08:20:46;;;;;;;3.58;0.70;;;;;;;;;;5003278;28;20642;-79
2023/12/23 08:23:11;;;;;;;4.25;0.98;;;;;;;;;;5004185;28;20075;-78
2023/12/23 08:25:36;;;;;;;4.97;1.50;;;;;;;;;;5007197;28;20421;-79
2023/12/23 08:28:02;;;;;;;5.45;0.82;;;;;;;;;;5009309;28;20034;-78
2023/12/23 08:30:27;;;;;;;6.80;0.82;;;;;;;;;;5011992;28;20025;-77
2023/12/23 08:32:52;;;;;;;9.57;2.08;;;;;;;;;;5008595;28;20483;-78
2023/12/23 08:35:17;;;;;;;8.98;1.08;;;;;;;;;;5009343;28;20013;-78
2023/12/23 08:37:42;;;;;;;3.65;1.05;;;;;;;;;;5004086;28;20555;-78
2023/12/23 08:40:08;;;;;;;4.25;0.80;;;;;;;;;;5010412;28;20471;-78
2023/12/23 08:42:33;;;;;;;6.82;1.05;;;;;;;;;;5009923;28;20033;-77
2023/12/23 08:44:58;;;;;;;5.80;1.30;;;;;;;;;;5009019;28;20037;-78
2023/12/23 08:47:23;;;;;;;5.32;1.15;;;;;;;;;;5010526;28;20116;-78
2023/12/23 08:49:48;;;;;;;4.88;1.17;;;;;;;;;;5010269;28;20033;-78
2023/12/23 08:52:14;;;;;;;7.00;1.67;;;;;;;;;;5007164;28;20053;-78
2023/12/23 08:54:39;;;;;;;2.33;0.80;;;;;;;;;;5007355;28;20510;-78
2023/12/23 08:57:04;;;;;;;4.32;1.30;;;;;;;;;;5011823;28;20594;-78
2023/12/23 08:59:29;;;;;;;3.67;1.10;;;;;;;;;;5010665;28;20026;-77
2023/12/23 09:01:54;;;;;;;5.65;0.90;;;;;;;;;;5006181;28;20117;-79
2023/12/23 09:04:20;;;;;;;4.03;1.30;;;;;;;;;;5010445;28;20072;-78
2023/12/23 09:06:46;;;;;;;4.30;1.00;;;;;;;;;;5003649;28;20038;-77
2023/12/23 09:09:11;;;;;;;2.80;1.33;;;;;;;;;;5013085;28;20402;-77
2023/12/23 09:11:40;;;;;;;3.47;0.80;;;;;;;;;;5011200;28;20041;-77
2023/12/23 09:14:06;;;;;;;4.13;1.33;;;;;;;;;;5009911;28;20068;-78
2023/12/23 09:16:31;;;;;;;5.32;1.23;;;;;;;;;;5007963;28;20115;-78
2023/12/23 09:18:56;;;;;;;7.22;2.83;;;;;;;;;;5008406;28;20049;-77
2023/12/23 09:21:21;;;;;;;8.82;3.13;;;;;;;;;;5005267;28;20026;-78
2023/12/23 09:23:46;;;;;;;7.13;2.75;;;;;;;;;;5010346;28;20033;-78
2023/12/23 09:26:13;;;;;;;7.00;2.95;;;;;;;;;;5013081;28;20026;-78
2023/12/23 09:28:38;;;;;;;11.52;4.10;;;;;;;;;;5007786;28;20073;-78
2023/12/23 09:31:03;;;;;;;9.88;4.50;;;;;;;;;;5007543;28;20064;-78
2023/12/23 09:33:28;;;;;;;6.15;3.45;;;;;;;;;;5008059;28;20421;-78
2023/12/23 09:35:54;;;;;;;9.63;2.65;;;;;;;;;;5007835;28;20117;-78
2023/12/23 09:38:19;;;;;;;6.93;2.17;;;;;;;;;;5012246;28;20029;-78
2023/12/23 09:40:44;;;;;;;4.80;1.80;;;;;;;;;;5007152;28;20061;-77
2023/12/23 09:43:10;;;;;;;3.85;1.85;;;;;;;;;;5010968;28;20026;-78
2023/12/23 09:45:36;;;;;;;6.38;1.75;;;;;;;;;;5005482;28;20045;-78
2023/12/23 09:48:01;;;;;;;2.47;1.00;;;;;;;;;;5009095;28;20037;-77
2023/12/23 09:50:26;;;;;;;3.15;1.20;;;;;;;;;;5012767;28;20026;-78
2023/12/23 09:52:52;;;;;;;2.65;1.00;;;;;;;;;;5009861;28;20030;-78
2023/12/23 09:55:17;;;;;;;4.13;1.20;;;;;;;;;;5010821;28;20026;-78
2023/12/23 09:57:43;;;;;;;5.85;1.20;;;;;;;;;;5007920;28;20034;-78
2023/12/23 10:00:08;;;;;;;3.05;0.98;;;;;;;;;;5006607;28;20037;-78
2023/12/23 10:02:39;;;;;;;2.90;1.10;;;;;;;;;;5009126;28;20127;-78
2023/12/23 10:05:04;;;;;;;4.40;1.80;;;;;;;;;;5011448;28;20526;-78
2023/12/23 10:07:30;;;;;;;3.85;1.30;;;;;;;;;;5010147;28;20052;-78
2023/12/23 10:09:55;;;;;;;2.88;1.10;;;;;;;;;;5007171;28;20124;-78
2023/12/23 10:12:20;;;;;;;3.70;1.23;;;;;;;;;;5010207;28;20037;-78
2023/12/23 10:14:47;;;;;;;3.97;1.17;;;;;;;;;;5003147;28;20426;-78
2023/12/23 10:17:13;;;;;;;3.10;1.50;;;;;;;;;;5009026;28;20430;-78
2023/12/23 10:19:38;;;;;;;3.28;0.90;;;;;;;;;;5013710;28;20120;-77
2023/12/23 10:22:03;;;;;;;3.83;1.58;;;;;;;;;;5011052;28;20465;-77
2023/12/23 10:24:28;;;;;;;4.75;2.22;;;;;;;;;;5008310;28;20073;-77
2023/12/23 10:26:54;;;;;;;4.55;1.67;;;;;;;;;;5004852;28;20069;-78
2023/12/23 10:29:19;;;;;;;5.15;1.70;;;;;;;;;;5007416;28;20402;-77
2023/12/23 10:31:46;;;;;;;3.88;1.50;;;;;;;;;;5008781;28;20494;-77
2023/12/23 10:34:11;;;;;;;3.65;1.40;;;;;;;;;;5007639;28;20037;-77
2023/12/23 10:36:37;;;;;;;3.00;1.30;;;;;;;;;;5010159;28;20414;-78
2023/12/23 10:39:07;;;;;;;3.10;1.30;;;;;;;;;;5005350;28;20498;-77
2023/12/23 10:41:46;;;;;;;2.65;1.13;;;;;;;;;;5008569;28;20030;-77
2023/12/23 10:44:11;;;;;;;2.63;1.10;;;;;;;;;;5008014;28;20094;-77
2023/12/23 10:46:37;;;;;;;2.47;0.98;;;;;;;;;;5011898;28;20049;-77
2023/12/23 10:49:02;;;;;;;3.05;1.05;;;;;;;;;;5011187;28;20106;-78
2023/12/23 10:51:28;;;;;;;2.20;0.80;;;;;;;;;;5006395;28;20038;-77
2023/12/23 10:53:53;;;;;;;3.25;1.08;;;;;;;;;;5007046;28;20100;-78
2023/12/23 10:56:19;;;;;;;2.45;0.85;;;;;;;;;;5006035;28;20034;-77
2023/12/23 10:58:44;;;;;;;2.60;0.95;;;;;;;;;;5007984;28;20049;-77
2023/12/23 11:01:11;;;;;;;4.07;1.30;;;;;;;;;;5009309;28;20030;-78
2023/12/23 11:03:37;;;;;;;2.17;0.90;;;;;;;;;;5009924;28;20038;-78
2023/12/23 11:06:04;;;;;;;1.48;0.80;;;;;;;;;;5006621;28;20038;-78
2023/12/23 11:08:30;;;;;;;2.13;1.00;;;;;;;;;;5004973;28;20049;-78
2023/12/23 11:10:55;;;;;;;2.33;1.10;;;;;;;;;;5004587;28;20410;-78
2023/12/23 11:13:20;;;;;;;2.47;1.10;;;;;;;;;;5009884;28;20038;-77
2023/12/23 11:15:46;;;;;;;3.70;1.42;;;;;;;;;;5007540;28;20129;-77
2023/12/23 11:18:11;;;;;;;2.05;1.02;;;;;;;;;;5010773;28;20029;-78
2023/12/23 11:20:47;;;;;;;2.55;1.05;;;;;;;;;;5004704;28;20105;-77
2023/12/23 11:23:28;;;;;;;2.35;0.82;;;;;;;;;;5007636;28;20061;-77
2023/12/23 11:25:54;;;;;;;2.00;0.93;;;;;;;;;;5001504;28;20034;-77
2023/12/23 11:28:19;;;;;;;2.35;0.73;;;;;;;;;;5010038;28;20088;-78
2023/12/23 11:31:00;;;;;;;1.83;0.80;;;;;;;;;;5006709;28;20034;-77
2023/12/23 11:33:28;;;;;;;2.33;0.90;;;;;;;;;;5009391;28;20103;-77
2023/12/23 11:35:55;;;;;;;2.70;1.08;;;;;;;;;;5003581;28;20042;-78
2023/12/23 11:38:20;;;;;;;2.35;1.17;;;;;;;;;;5004150;28;20112;-78
2023/12/23 11:40:46;;;;;;;2.33;1.13;;;;;;;;;;5003604;28;20126;-77
2023/12/23 11:43:11;;;;;;;3.00;1.50;;;;;;;;;;5006961;28;20037;-77
2023/12/23 11:45:37;;;;;;;3.53;1.27;;;;;;;;;;5007914;28;20100;-77
2023/12/23 11:48:03;;;;;;;4.10;1.30;;;;;;;;;;5010793;28;20491;-78
2023/12/23 11:50:29;;;;;;;4.32;2.38;;;;;;;;;;5004690;28;20028;-77
2023/12/23 11:52:55;;;;;;;3.20;1.98;;;;;;;;;;5004809;28;20473;-77
2023/12/23 11:55:20;;;;;;;3.72;1.90;;;;;;;;;;5006759;28;20029;-77
2023/12/23 11:57:45;;;;;;;5.93;2.50;;;;;;;;;;5007767;28;20038;-77
2023/12/23 12:00:11;;;;;;;3.45;1.83;;;;;;;;;;5006227;28;20250;-78
2023/12/23 12:02:36;;;;;;;4.00;1.73;;;;;;;;;;5006523;28;20204;-77
2023/12/23 12:05:01;;;;;;;4.45;1.60;;;;;;;;;;5002949;28;20172;-77
2023/12/23 12:07:28;;;;;;;3.65;2.15;;;;;;;;;;5005530;28;20070;-78
2023/12/23 12:09:53;;;;;;;4.10;1.40;;;;;;;;;;5007905;28;20038;-78
2023/12/23 12:12:19;;;;;;;5.97;2.60;;;;;;;;;;5009799;28;20125;-77
2023/12/23 12:14:45;;;;;;;7.03;2.63;;;;;;;;;;5004321;28;20034;-77
2023/12/23 12:17:10;;;;;;;3.35;1.90;;;;;;;;;;5005317;28;20061;-78
2023/12/23 12:19:35;;;;;;;3.60;1.40;;;;;;;;;;5007886;28;20061;-78
2023/12/23 12:22:00;;;;;;;3.15;1.70;;;;;;;;;;5004332;28;20507;-77
2023/12/23 12:24:26;;;;;;;3.15;1.90;;;;;;;;;;5009220;28;20105;-78
2023/12/23 12:26:53;;;;;;;2.83;1.73;;;;;;;;;;5005219;28;20025;-77
2023/12/23 12:29:19;;;;;;;3.05;1.45;;;;;;;;;;5006729;28;20388;-77
2023/12/23 12:31:44;;;;;;;4.05;1.83;;;;;;;;;;5006599;28;20022;-78
2023/12/23 12:34:11;;;;;;;4.22;2.00;;;;;;;;;;5003333;28;20527;-77
2023/12/23 12:36:36;;;;;;;4.35;2.08;;;;;;;;;;5010656;28;20549;-78
2023/12/23 12:39:02;;;;;;;3.35;1.80;;;;;;;;;;5006362;28;20035;-78
2023/12/23 12:41:27;;;;;;;4.38;1.77;;;;;;;;;;5007553;28;20048;-78
2023/12/23 12:43:54;;;;;;;3.65;1.92;;;;;;;;;;5005852;28;20062;-78
2023/12/23 12:46:19;;;;;;;3.28;1.95;;;;;;;;;;5009597;28;20406;-77
2023/12/23 12:48:45;;;;;;;3.80;1.63;;;;;;;;;;5008397;28;20030;-78
2023/12/23 12:51:11;;;;;;;4.45;1.77;;;;;;;;;;5009751;28;20030;-78
2023/12/23 12:53:37;;;;;;;2.92;1.25;;;;;;;;;;5006529;28;20517;-78
2023/12/23 12:56:08;;;;;;;3.92;1.58;;;;;;;;;;5005516;28;20034;-78
2023/12/23 12:58:33;;;;;;;2.53;1.20;;;;;;;;;;5004372;28;20038;-78
2023/12/23 13:00:59;;;;;;;2.97;1.23;;;;;;;;;;4984676;28;20442;-78
2023/12/23 13:03:24;;;;;;;1.95;0.73;;;;;;;;;;5064491;23;20064;-78
2023/12/23 13:05:50;;;;;;;1.60;0.70;;;;;;;;;;5029270;28;20064;-78
2023/12/23 13:08:15;;;;;;;1.50;0.60;;;;;;;;;;5028133;28;20030;-78
2023/12/23 13:10:40;;;;;;;2.28;1.00;;;;;;;;;;5025490;28;20379;-78
2023/12/23 13:13:05;;;;;;;2.63;0.85;;;;;;;;;;5024112;28;20080;-77
2023/12/23 13:15:30;;;;;;;3.35;1.48;;;;;;;;;;5026884;28;20029;-78
2023/12/23 13:17:56;;;;;;;3.78;1.70;;;;;;;;;;5030028;28;20021;-77
2023/12/23 13:20:21;;;;;;;2.50;1.23;;;;;;;;;;5032590;28;20647;-78
2023/12/23 13:22:46;;;;;;;2.22;1.00;;;;;;;;;;5029512;28;20512;-77
2023/12/23 13:25:11;;;;;;;3.38;1.58;;;;;;;;;;5028179;28;20034;-78
2023/12/23 13:27:37;;;;;;;3.05;1.30;;;;;;;;;;5026412;28;20025;-78
2023/12/23 13:30:03;;;;;;;4.68;1.30;;;;;;;;;;5025449;28;20026;-77
2023/12/23 13:32:28;;;;;;;3.72;1.63;;;;;;;;;;5028224;28;20030;-77
2023/12/23 13:34:55;;;;;;;2.95;1.38;;;;;;;;;;5030858;28;20421;-77
2023/12/23 13:37:20;;;;;;;3.50;1.52;;;;;;;;;;5032587;28;20045;-78
2023/12/23 13:39:45;;;;;;;5.45;1.80;;;;;;;;;;5026885;28;20025;-77
2023/12/23 13:42:10;;;;;;;3.67;1.65;;;;;;;;;;5026014;28;20026;-77
2023/12/23 13:44:36;;;;;;;5.90;2.25;;;;;;;;;;5023863;28;20017;-78
2023/12/23 13:47:02;;;;;;;4.35;1.92;;;;;;;;;;5029620;28;20072;-78
2023/12/23 13:49:27;;;;;;;3.22;1.67;;;;;;;;;;5040162;28;20033;-78
2023/12/23 13:51:53;;;;;;;3.38;1.42;;;;;;;;;;5029690;28;20513;-78
2023/12/23 13:54:18;;;;;;;3.55;1.85;;;;;;;;;;5028517;28;20032;-78
2023/12/23 13:56:45;;;;;;;3.42;1.67;;;;;;;;;;5024597;28;20038;-78
2023/12/23 13:59:11;;;;;;;4.03;1.73;;;;;;;;;;5024935;28;20367;-78
2023/12/23 14:01:36;;;;;;;3.90;2.08;;;;;;;;;;5032614;28;20045;-77
2023/12/23 14:04:01;;;;;;;3.00;1.70;;;;;;;;;;5029187;28;20038;-77
2023/12/23 14:06:26;;;;;;;3.45;1.60;;;;;;;;;;5029617;28;20052;-78
2023/12/23 14:08:51;;;;;;;2.65;1.40;;;;;;;;;;5023809;28;20045;-78
2023/12/23 14:11:16;;;;;;;4.05;2.13;;;;;;;;;;5030239;28;20163;-78
2023/12/23 14:13:42;;;;;;;3.15;1.70;;;;;;;;;;5025460;28;20030;-78
2023/12/23 14:16:07;;;;;;;2.65;1.42;;;;;;;;;;5031258;28;20037;-78
2023/12/23 14:18:32;;;;;;;3.00;1.80;;;;;;;;;;5033050;28;20133;-78
2023/12/23 14:20:57;;;;;;;3.58;1.60;;;;;;;;;;5026772;28;20030;-78
2023/12/23 14:23:22;;;;;;;3.72;2.08;;;;;;;;;;5027494;28;20037;-78
2023/12/23 14:25:48;;;;;;;4.80;1.83;;;;;;;;;;5022306;28;20072;-78
2023/12/23 14:28:13;;;;;;;6.20;3.30;;;;;;;;;;5027815;28;20035;-78
2023/12/23 14:30:39;;;;;;;4.82;2.75;;;;;;;;;;5031656;28;20033;-78